createdAt,value
2023-03-05T00:02:06.629Z,99511.44
2023-03-05T00:07:12.424Z,99506.86
2023-03-05T00:12:15.529Z,99501.81
2023-03-05T00:17:18.950Z,99496.41
2023-03-05T00:22:22.113Z,99491.98
2023-03-05T00:27:25.060Z,99479.61
2023-03-05T00:32:28.252Z,99472.01
2023-03-05T00:37:31.389Z,99469.88
2023-03-05T00:42:38.851Z,99463.40
2023-03-05T00:47:41.906Z,99456.48
2023-03-05T00:52:45.011Z,99453.86
2023-03-05T00:57:48.126Z,99453.41
2023-03-05T01:02:51.100Z,99446.23
2023-03-05T01:07:55.967Z,99440.27
2023-03-05T01:12:58.884Z,99436.84
2023-03-05T01:18:01.870Z,99434.83
2023-03-05T01:23:04.867Z,99430.37
2023-03-05T01:28:08.867Z,99426.77
2023-03-05T01:33:11.805Z,99426.40
2023-03-05T01:38:16.971Z,99417.66
2023-03-05T01:43:28.767Z,99412.62
2023-03-05T01:48:31.781Z,99412.91
2023-03-05T01:53:34.880Z,99407.23
2023-03-05T01:58:39.923Z,99407.98
2023-03-05T02:03:43.190Z,99403.70
2023-03-05T02:08:46.156Z,99402.14
2023-03-05T02:13:49.575Z,99399.92
2023-03-05T02:18:52.686Z,99395.63
2023-03-05T02:23:55.692Z,99398.73
2023-03-05T02:29:02.249Z,99392.32
2023-03-05T02:34:06.469Z,99385.36
2023-03-05T02:39:10.034Z,99379.73
2023-03-05T02:44:12.940Z,99375.88
2023-03-05T02:49:16.049Z,99372.56
2023-03-05T02:54:19.059Z,99378.14
2023-03-05T02:59:22.166Z,99375.09
2023-03-05T03:04:26.094Z,99371.85
2023-03-05T03:09:29.469Z,99371.09
2023-03-05T03:14:39.298Z,99370.04
2023-03-05T03:19:43.385Z,99362.39
2023-03-05T03:24:46.281Z,99357.89
2023-03-05T03:29:49.424Z,99348.72
2023-03-05T03:34:52.430Z,99344.01
2023-03-05T03:39:55.445Z,99329.21
2023-03-05T03:44:58.546Z,99319.73
2023-03-05T03:50:01.662Z,99307.27
2023-03-05T03:55:05.128Z,99299.88
2023-03-05T04:00:09.728Z,99288.60
2023-03-05T04:05:12.725Z,99288.83
2023-03-05T04:10:15.728Z,99274.04
2023-03-05T04:15:19.054Z,99260.31
2023-03-05T04:20:21.948Z,99265.31
2023-03-05T04:25:24.884Z,99256.58
2023-03-05T04:30:27.850Z,99247.14
2023-03-05T04:35:31.119Z,99240.72
2023-03-05T04:40:34.653Z,99236.61
2023-03-05T04:45:40.711Z,99230.82
2023-03-05T04:50:43.767Z,99221.80
2023-03-05T04:55:46.910Z,99219.84
2023-03-05T05:00:49.887Z,99214.81
2023-03-05T05:05:57.194Z,99215.59
2023-03-05T05:11:03.014Z,99209.58
2023-03-05T05:16:09.299Z,99209.41
2023-03-05T05:21:14.305Z,99209.79
2023-03-05T05:26:17.311Z,99209.57
2023-03-05T05:31:20.319Z,99214.83
2023-03-05T05:36:23.426Z,99219.89
2023-03-05T05:41:26.433Z,99215.05
2023-03-05T05:46:29.669Z,99218.67
2023-03-05T05:51:32.656Z,99215.34
2023-03-05T05:56:35.782Z,99214.23
2023-03-05T06:01:38.897Z,99215.88
2023-03-05T06:06:42.182Z,99206.94
2023-03-05T06:11:45.177Z,99203.76
2023-03-05T06:16:48.445Z,99204.42
2023-03-05T06:21:51.508Z,99207.75
2023-03-05T06:26:54.520Z,99205.73
2023-03-05T06:31:57.673Z,99202.34
2023-03-05T06:37:00.738Z,99202.19
2023-03-05T06:42:03.739Z,99200.63
2023-03-05T06:47:09.418Z,99200.33
2023-03-05T06:52:13.029Z,99202.66
2023-03-05T06:57:16.036Z,99196.14
2023-03-05T07:02:19.489Z,99194.38
2023-03-05T07:07:22.663Z,99194.25
2023-03-05T07:12:25.766Z,99189.11
2023-03-05T07:17:28.781Z,99184.81
2023-03-05T07:22:32.204Z,99184.58
2023-03-05T07:27:37.147Z,99177.73
2023-03-05T07:32:40.455Z,99178.22
2023-03-05T07:37:43.584Z,99175.84
2023-03-05T07:42:46.468Z,99173.91
2023-03-05T07:47:51.070Z,99165.71
2023-03-05T07:52:55.772Z,99162.49
2023-03-05T07:57:58.969Z,99150.89
2023-03-05T08:03:02.187Z,99148.85
2023-03-05T08:08:05.790Z,99153.50
2023-03-05T08:13:09.022Z,99151.79
2023-03-05T08:18:13.966Z,99155.08
2023-03-05T08:23:16.971Z,99164.06
2023-03-05T08:28:20.085Z,99157.59
2023-03-05T08:33:23.198Z,99152.96
2023-03-05T08:38:26.954Z,99150.77
2023-03-05T08:43:31.466Z,99144.05
2023-03-05T08:48:35.273Z,99146.78
2023-03-05T08:53:38.785Z,99145.64
2023-03-05T08:58:42.445Z,99142.46
2023-03-05T09:03:45.528Z,99142.98
2023-03-05T09:08:48.554Z,99141.96
2023-03-05T09:13:51.769Z,99142.27
2023-03-05T09:18:54.756Z,99142.55
2023-03-05T09:24:00.146Z,99143.16
2023-03-05T09:29:03.748Z,99140.44
2023-03-05T09:34:08.392Z,99137.95
2023-03-05T09:39:11.902Z,99132.73
2023-03-05T09:44:30.059Z,99126.60
2023-03-05T09:50:02.046Z,99128.26
2023-03-05T09:55:30.038Z,99117.33
2023-03-05T10:00:45.363Z,99115.42
2023-03-05T10:05:58.576Z,99110.29
2023-03-05T10:11:08.829Z,99107.70
2023-03-05T10:16:33.109Z,99103.79
2023-03-05T10:21:57.172Z,99097.59
2023-03-05T10:27:14.547Z,99099.99
2023-03-05T10:32:45.181Z,99089.00
2023-03-05T10:38:14.384Z,99084.23
2023-03-05T10:43:37.564Z,99090.90
2023-03-05T10:48:46.609Z,99091.82
2023-03-05T10:54:02.213Z,99095.19
2023-03-05T10:59:05.116Z,99089.34
2023-03-05T11:04:26.549Z,99080.91
2023-03-05T11:09:32.731Z,99074.23
2023-03-05T11:33:20.633Z,99041.14
2023-03-05T11:38:26.648Z,99041.19
2023-03-05T11:43:31.480Z,99038.14
2023-03-05T11:48:40.107Z,99043.44
2023-03-05T11:53:46.333Z,99044.31
2023-03-05T11:59:14.308Z,99048.00
2023-03-05T12:04:18.561Z,99052.98
2023-03-05T12:09:25.856Z,99069.42
2023-03-05T12:14:58.664Z,99066.67
2023-03-05T12:20:40.688Z,99052.99
2023-03-05T12:25:59.464Z,99043.80
2023-03-05T12:31:09.600Z,99043.20
2023-03-05T12:36:22.075Z,99037.98
2023-03-05T12:41:27.961Z,99032.27
2023-03-05T12:46:35.964Z,99025.68
2023-03-05T12:51:41.958Z,99026.02
2023-03-05T12:56:47.384Z,99020.46
2023-03-05T13:02:03.834Z,99017.08
2023-03-05T13:07:15.529Z,99016.09
2023-03-05T13:12:18.927Z,99016.67
2023-03-05T13:17:35.877Z,99020.92
2023-03-05T13:22:39.182Z,99014.71
2023-03-05T13:27:43.598Z,99005.52
2023-03-05T13:32:52.391Z,99010.36
2023-03-05T13:37:57.183Z,99010.61
2023-03-05T13:43:20.828Z,99008.33
2023-03-05T13:48:25.656Z,99008.73
2023-03-05T13:53:31.016Z,99008.53
2023-03-05T13:58:40.783Z,99006.67
2023-03-05T14:03:44.095Z,99000.88
2023-03-05T14:08:53.248Z,99005.75
2023-03-05T14:14:06.764Z,98998.86
2023-03-05T14:19:32.126Z,98992.83
2023-03-05T14:24:35.235Z,98993.78
2023-03-05T14:29:38.354Z,98989.55
2023-03-05T14:34:42.849Z,98986.05
2023-03-05T14:40:00.981Z,98987.28
2023-03-05T14:45:18.530Z,98985.67
2023-03-05T14:50:24.610Z,98987.00
2023-03-05T14:55:32.040Z,98988.20
2023-03-05T15:00:35.428Z,98984.23
2023-03-05T15:05:39.559Z,98988.80
2023-03-05T15:10:43.185Z,98983.00
2023-03-05T15:15:48.124Z,98983.53
2023-03-05T15:20:54.934Z,98981.64
2023-03-05T15:25:58.011Z,98981.31
2023-03-05T15:31:01.354Z,98984.25
2023-03-05T15:36:05.587Z,98987.35
2023-03-05T15:41:08.568Z,98984.08
2023-03-05T15:46:11.735Z,98985.62
2023-03-05T15:51:14.889Z,98987.31
2023-03-05T15:56:18.570Z,98994.86
2023-03-05T16:01:23.572Z,98992.39
2023-03-05T16:06:26.782Z,98988.52
2023-03-05T16:11:32.802Z,98992.20
2023-03-05T16:16:36.699Z,98995.66
2023-03-05T16:21:40.045Z,99001.85
2023-03-05T16:26:43.439Z,99008.56
2023-03-05T16:31:47.782Z,99010.98
2023-03-05T16:36:52.990Z,99016.65
2023-03-05T16:41:57.973Z,99015.47
2023-03-05T16:47:01.129Z,99018.30
2023-03-05T16:52:17.736Z,99016.02
2023-03-05T16:57:24.197Z,99017.73
2023-03-05T17:02:27.408Z,99015.30
2023-03-05T17:07:30.605Z,99017.63
2023-03-05T17:12:33.726Z,99018.91
2023-03-05T17:17:38.671Z,99018.97
2023-03-05T17:22:41.887Z,99019.04
2023-03-05T17:27:44.995Z,99016.02
2023-03-05T17:32:48.095Z,99015.56
2023-03-05T17:37:51.924Z,99015.45
2023-03-05T17:42:55.234Z,99012.14
2023-03-05T17:47:58.860Z,99013.48
2023-03-05T17:53:02.077Z,99013.06
2023-03-05T17:58:05.284Z,99011.60
2023-03-05T18:03:08.489Z,99013.05
2023-03-05T18:08:11.599Z,99015.25
2023-03-05T18:13:14.615Z,99012.98
2023-03-05T18:18:18.603Z,99016.19
2023-03-05T18:23:21.880Z,99012.69
2023-03-05T18:28:26.087Z,99016.49
2023-03-05T18:33:29.189Z,99017.38
2023-03-05T18:38:32.605Z,99022.69
2023-03-05T18:43:35.824Z,99019.83
2023-03-05T18:48:39.026Z,99017.02
2023-03-05T18:53:42.156Z,99017.84
2023-03-05T18:58:45.652Z,99015.45
2023-03-05T19:03:49.427Z,99020.74
2023-03-05T19:08:57.506Z,99021.74
2023-03-05T19:14:00.620Z,99021.80
2023-03-05T19:19:16.605Z,99026.45
2023-03-05T19:24:24.218Z,99027.85
2023-03-05T19:29:33.065Z,99022.19
2023-03-05T19:34:37.220Z,99024.27
2023-03-05T19:39:40.646Z,99028.35
2023-03-05T19:44:43.746Z,99030.52
2023-03-05T19:49:46.952Z,99029.28
2023-03-05T19:54:50.161Z,99031.31
2023-03-05T19:59:53.996Z,99039.98
2023-03-05T20:04:57.809Z,99033.48
2023-03-05T20:10:01.076Z,99034.96
2023-03-05T20:15:04.473Z,99033.66
2023-03-05T20:20:08.586Z,99033.66
2023-03-05T20:25:13.634Z,99032.27
2023-03-05T20:30:18.073Z,99032.02
2023-03-05T20:35:21.904Z,99028.08
2023-03-05T20:40:25.004Z,99025.10
2023-03-05T20:45:28.228Z,99019.17
2023-03-05T20:50:33.597Z,99019.64
2023-03-05T20:55:36.696Z,99018.01
2023-03-05T21:00:40.383Z,99013.06
2023-03-05T21:05:43.428Z,99005.56
2023-03-05T21:10:46.739Z,99005.34
2023-03-05T21:15:49.847Z,99006.75
2023-03-05T21:20:52.971Z,99004.70
2023-03-05T21:25:56.094Z,99001.96
2023-03-05T21:31:06.966Z,99002.48
2023-03-05T21:36:10.380Z,99000.76
2023-03-05T21:41:13.484Z,98996.54
2023-03-05T21:46:16.674Z,98992.89
2023-03-05T21:51:22.772Z,98989.33
2023-03-05T21:56:26.592Z,98987.16
2023-03-05T22:01:29.742Z,98988.05
2023-03-05T22:06:32.802Z,98988.52
2023-03-05T22:11:36.191Z,98981.31
2023-03-05T22:16:39.253Z,98987.05
2023-03-05T22:21:42.335Z,98983.61
2023-03-05T22:26:45.455Z,98980.16
2023-03-05T22:31:48.655Z,98977.51
2023-03-05T22:36:51.767Z,98971.02
2023-03-05T22:41:55.069Z,98966.36
2023-03-05T22:46:58.178Z,98961.63
2023-03-05T22:52:01.286Z,98960.67
2023-03-05T22:57:05.043Z,98960.92
2023-03-05T23:02:08.020Z,98962.86
2023-03-05T23:07:11.048Z,98961.48
2023-03-05T23:12:14.246Z,98952.61
2023-03-05T23:17:17.475Z,98954.71
2023-03-05T23:22:20.879Z,98954.30
2023-03-05T23:27:23.989Z,98948.25
2023-03-05T23:32:30.794Z,98944.73
2023-03-05T23:37:33.888Z,98941.20
2023-03-05T23:42:38.438Z,98948.81
2023-03-05T23:47:41.743Z,98939.70
2023-03-05T23:52:45.976Z,98938.92
2023-03-05T23:57:49.391Z,98933.48
